Time;durP1;ratioP1;P1;durP2;ratioP2;P2;SDS_P1;SDS_P2;PMS_P1;PMS_P2;Temp;Humidity;BMP_temperature;BMP_pressure;BME280_temperature;BME280_humidity;BME280_pressure;Samples;Min_cycle;Max_cycle;Signal;HPM_P1;HPM_P2
2022/09/17 00:00:08;;;;;;;;;;;;;;;28.58;30.85;99759.81;5039617;28;1577;-33
2022/09/17 00:02:33;;;;;;;;;;;;;;;28.56;30.95;99760.03;5038970;28;1239;-31
2022/09/17 00:04:58;;;;;;;;;;;;;;;28.59;31.26;99756.88;5039947;28;1140;-34
2022/09/17 00:07:23;;;;;;;;;;;;;;;28.57;30.70;99756.31;5053976;28;1136;-30
2022/09/17 00:09:49;;;;;;;;;;;;;;;28.59;31.23;99751.47;5042102;28;897;-30
2022/09/17 00:12:14;;;;;;;;;;;;;;;28.55;31.27;99744.84;5039116;28;1234;-32
2022/09/17 00:14:39;;;;;;;;;;;;;;;28.54;31.22;99750.50;5039289;28;1894;-29
2022/09/17 00:17:05;;;;;;;;;;;;;;;28.54;31.34;99747.78;5039292;28;1203;-33
2022/09/17 00:19:30;;;;;;;;;;;;;;;28.50;30.58;99747.38;5039229;28;1192;-34
2022/09/17 00:21:55;;;;;;;;;;;;;;;28.59;30.65;99751.47;5040747;28;872;-31
2022/09/17 00:24:21;;;;;;;;;;;;;;;28.54;30.58;99735.09;5039332;28;1187;-34
2022/09/17 00:26:47;;;;;;;;;;;;;;;28.52;30.74;99739.03;5039422;28;1116;-30
2022/09/17 00:29:12;;;;;;;;;;;;;;;28.53;31.34;99738.81;5039383;28;1242;-31
2022/09/17 00:31:38;;;;;;;;;;;;;;;28.64;31.39;99740.03;5039615;28;1151;-32
2022/09/17 00:34:03;;;;;;;;;;;;;;;28.58;30.67;99739.00;5052566;28;1913;-32
2022/09/17 00:36:28;;;;;;;;;;;;;;;28.60;30.50;99738.78;5039023;28;1144;-32
2022/09/17 00:38:57;;;;;;;;;;;;;;;28.56;31.40;99740.28;5040438;28;1093;-32
2022/09/17 00:41:24;;;;;;;;;;;;;;;28.53;30.40;99741.53;5038910;28;1183;-32
2022/09/17 00:43:50;;;;;;;;;;;;;;;28.57;30.72;99741.94;5039069;28;1057;-29
2022/09/17 00:46:15;;;;;;;;;;;;;;;28.48;31.32;99738.66;5040245;28;1250;-33
2022/09/17 00:48:40;;;;;;;;;;;;;;;28.58;31.19;99735.47;5039276;28;1222;-33
2022/09/17 00:51:06;;;;;;;;;;;;;;;28.60;30.72;99736.91;5038790;28;1116;-29
2022/09/17 00:53:31;;;;;;;;;;;;;;;28.54;31.53;99735.09;5037302;28;1894;-33
2022/09/17 00:56:02;;;;;;;;;;;;;;;28.42;30.77;99729.53;5038828;28;1152;-31
2022/09/17 00:58:27;;;;;;;;;;;;;;;28.54;31.34;99739.66;5039163;28;922;-33
2022/09/17 01:00:52;;;;;;;;;;;;;;;28.51;30.34;99737.41;5038471;28;1120;-35
2022/09/17 01:03:17;;;;;;;;;;;;;;;28.44;30.40;99740.97;5066324;28;1160;-32
2022/09/17 01:05:48;;;;;;;;;;;;;;;28.48;30.54;99739.47;5038431;28;1013;-31
2022/09/17 01:08:16;;;;;;;;;;;;;;;28.48;30.33;99734.06;5038697;28;1167;-32
2022/09/17 01:10:41;;;;;;;;;;;;;;;28.47;30.35;99735.13;5051462;28;1227;-29
2022/09/17 01:13:22;;;;;;;;;;;;;;;28.44;30.55;99735.56;5038721;28;1254;-31
2022/09/17 01:15:50;;;;;;;;;;;;;;;28.47;30.51;99737.84;5037994;28;1977;-30
2022/09/17 01:18:17;;;;;;;;;;;;;;;28.47;30.85;99745.13;5038313;28;1168;-34
2022/09/17 01:20:49;;;;;;;;;;;;;;;28.40;30.88;99742.44;5038838;28;1249;-30
2022/09/17 01:23:23;;;;;;;;;;;;;;;28.42;30.67;99734.94;5048233;28;1202;-32
2022/09/17 01:26:10;;;;;;;;;;;;;;;28.43;30.87;99738.47;5037541;28;1120;-34
2022/09/17 01:28:44;;;;;;;;;;;;;;;28.46;30.63;99738.88;5037557;28;1164;-31
2022/09/17 01:31:16;;;;;;;;;;;;;;;28.40;30.85;99728.91;5037982;28;1226;-31
2022/09/17 01:33:51;;;;;;;;;;;;;;;28.46;30.64;99733.44;5046386;28;1909;-32
2022/09/17 01:36:31;;;;;;;;;;;;;;;28.40;30.59;99725.38;5037790;28;1143;-34
2022/09/17 01:39:10;;;;;;;;;;;;;;;28.43;30.88;99728.47;5039837;28;1175;-31
2022/09/17 01:41:52;;;;;;;;;;;;;;;28.47;30.22;99723.47;5038086;28;1108;-32
2022/09/17 01:44:36;;;;;;;;;;;;;;;28.46;30.83;99716.41;5036684;28;1253;-30
2022/09/17 01:47:12;;;;;;;;;;;;;;;28.38;30.86;99712.06;5050180;28;903;-31
2022/09/17 01:49:37;;;;;;;;;;;;;;;28.33;30.63;99718.13;5036476;28;1112;-31
2022/09/17 01:52:03;;;;;;;;;;;;;;;28.43;30.43;99700.59;5036387;28;1137;-32
2022/09/17 01:54:33;;;;;;;;;;;;;;;28.41;30.35;99710.81;5036165;28;1975;-33
2022/09/17 01:57:07;;;;;;;;;;;;;;;28.39;30.42;99718.31;5036331;28;1188;-31
2022/09/17 01:59:34;;;;;;;;;;;;;;;28.38;30.68;99701.25;5045496;28;1172;-30
2022/09/17 02:02:02;;;;;;;;;;;;;;;28.47;30.32;99708.06;5035832;28;1124;-32
2022/09/17 02:04:28;;;;;;;;;;;;;;;28.47;30.16;99712.66;5036733;28;1216;-35
2022/09/17 02:06:57;;;;;;;;;;;;;;;28.40;30.11;99704.56;5035778;28;1168;-33
2022/09/17 02:09:23;;;;;;;;;;;;;;;28.47;30.75;99710.78;5040425;28;1151;-30
2022/09/17 02:11:50;;;;;;;;;;;;;;;28.42;30.70;99721.41;5042993;28;1214;-33
2022/09/17 02:14:18;;;;;;;;;;;;;;;28.45;30.66;99715.56;5035911;28;2257;-35
2022/09/17 02:16:47;;;;;;;;;;;;;;;28.41;30.18;99710.81;5036005;28;1184;-32
2022/09/17 02:19:21;;;;;;;;;;;;;;;28.40;30.32;99715.38;5037139;28;1195;-33
2022/09/17 02:21:47;;;;;;;;;;;;;;;28.42;30.53;99709.75;5042883;28;1231;-32
2022/09/17 02:24:12;;;;;;;;;;;;;;;28.44;30.13;99703.09;5038344;28;1127;-33
2022/09/17 02:26:38;;;;;;;;;;;;;;;28.46;29.99;99702.88;5036948;28;1136;-33
2022/09/17 02:29:08;;;;;;;;;;;;;;;28.51;30.57;99694.13;5035979;28;1207;-34
2022/09/17 02:31:33;;;;;;;;;;;;;;;28.46;30.02;99692.88;5036699;28;1132;-32
2022/09/17 02:34:00;;;;;;;;;;;;;;;28.48;30.65;99698.06;5050650;28;1902;-33
2022/09/17 02:36:25;;;;;;;;;;;;;;;28.44;30.24;99702.28;5035637;28;1144;-34
2022/09/17 02:38:56;;;;;;;;;;;;;;;28.42;30.38;99685.41;5038056;28;1187;-32
2022/09/17 02:41:22;;;;;;;;;;;;;;;28.46;30.81;99692.06;5036149;28;1156;-32
2022/09/17 02:43:55;;;;;;;;;;;;;;;28.50;30.24;99687.03;5036100;28;1160;-35
2022/09/17 02:46:20;;;;;;;;;;;;;;;28.44;30.21;99695.00;5050063;28;1152;-34
2022/09/17 02:48:51;;;;;;;;;;;;;;;28.43;30.25;99685.19;5036678;28;1104;-33
2022/09/17 02:51:35;;;;;;;;;;;;;;;28.52;30.16;99682.22;5036703;28;1175;-31
2022/09/17 02:54:05;;;;;;;;;;;;;;;28.38;30.04;99686.91;5036183;28;1947;-31
2022/09/17 02:56:43;;;;;;;;;;;;;;;28.41;30.15;99681.88;5035846;28;1200;-30
2022/09/17 02:59:11;;;;;;;;;;;;;;;28.37;30.09;99677.97;5043247;28;886;-31
2022/09/17 03:01:43;;;;;;;;;;;;;;;28.38;30.29;99685.03;5036127;28;1194;-31
2022/09/17 03:04:08;;;;;;;;;;;;;;;28.43;30.20;99682.50;5035605;28;1144;-31
2022/09/17 03:06:34;;;;;;;;;;;;;;;28.35;30.02;99675.47;5035157;28;1204;-32
2022/09/17 03:08:59;;;;;;;;;;;;;;;28.40;29.85;99669.41;5035848;28;1180;-30
2022/09/17 03:11:24;;;;;;;;;;;;;;;28.41;30.01;99662.13;5041657;28;956;-30
2022/09/17 03:13:50;;;;;;;;;;;;;;;28.41;30.07;99671.06;5036081;28;1898;-30
2022/09/17 03:16:16;;;;;;;;;;;;;;;28.37;30.45;99661.75;5036323;28;1203;-30
2022/09/17 03:18:41;;;;;;;;;;;;;;;28.20;32.31;99664.09;5036029;28;1196;-33
2022/09/17 03:21:07;;;;;;;;;;;;;;;28.04;32.87;99665.44;5036302;28;1194;-37
2022/09/17 03:23:32;;;;;;;;;;;;;;;27.81;38.98;99658.69;5040323;28;894;-34
2022/09/17 03:25:58;;;;;;;;;;;;;;;27.54;41.10;99656.03;5036123;28;1175;-35
2022/09/17 03:28:25;;;;;;;;;;;;;;;27.43;40.58;99660.22;5057511;28;1254;-31
2022/09/17 03:30:50;;;;;;;;;;;;;;;27.37;41.20;99662.75;5042449;28;1178;-37
2022/09/17 03:33:16;;;;;;;;;;;;;;;27.36;41.97;99658.34;5036687;28;1172;-36
2022/09/17 03:35:42;;;;;;;;;;;;;;;27.31;42.10;99665.44;5038272;28;1969;-35
2022/09/17 03:38:07;;;;;;;;;;;;;;;27.22;42.14;99676.47;5035800;28;1128;-37
2022/09/17 03:40:32;;;;;;;;;;;;;;;27.21;42.22;99671.28;5038549;28;1171;-35
2022/09/17 03:42:58;;;;;;;;;;;;;;;27.04;41.84;99670.88;5035915;28;1171;-35
2022/09/17 03:45:23;;;;;;;;;;;;;;;27.18;40.95;99671.69;5042049;28;1210;-36
2022/09/17 03:47:48;;;;;;;;;;;;;;;27.09;41.87;99663.81;5043382;28;977;-39
2022/09/17 03:50:13;;;;;;;;;;;;;;;27.12;42.56;99659.88;5035919;28;1128;-37
2022/09/17 03:52:39;;;;;;;;;;;;;;;27.14;42.20;99663.19;5044163;28;1270;-32
2022/09/17 03:55:04;;;;;;;;;;;;;;;26.94;42.18;99664.00;5042546;28;1982;-39
2022/09/17 03:57:30;;;;;;;;;;;;;;;27.08;41.99;99669.41;5047668;28;1124;-38
2022/09/17 03:59:55;;;;;;;;;;;;;;;27.08;41.91;99674.81;5049471;28;1538;-37
2022/09/17 04:02:20;;;;;;;;;;;;;;;27.22;41.45;99671.06;5056147;28;1175;-36
2022/09/17 04:04:45;;;;;;;;;;;;;;;27.24;40.52;99668.97;5054424;28;973;-35
2022/09/17 04:07:11;;;;;;;;;;;;;;;27.17;40.53;99653.84;5056270;28;1175;-33
2022/09/17 04:09:36;;;;;;;;;;;;;;;27.13;41.37;99659.66;5048618;28;1276;-38
2022/09/17 04:12:01;;;;;;;;;;;;;;;27.12;41.68;99655.31;5054541;28;888;-36
2022/09/17 04:14:27;;;;;;;;;;;;;;;27.13;41.70;99648.03;5054711;28;1894;-37
2022/09/17 04:16:52;;;;;;;;;;;;;;;27.10;41.65;99640.34;5055600;28;1198;-34
2022/09/17 04:19:17;;;;;;;;;;;;;;;27.08;41.98;99645.13;5043777;28;1049;-36
2022/09/17 04:21:43;;;;;;;;;;;;;;;27.13;41.97;99634.53;5042855;28;1318;-34
2022/09/17 04:24:08;;;;;;;;;;;;;;;27.11;41.56;99628.53;5058931;28;933;-35
2022/09/17 04:26:33;;;;;;;;;;;;;;;27.14;42.27;99630.81;5059499;28;1080;-36
2022/09/17 04:28:59;;;;;;;;;;;;;;;27.18;42.04;99636.59;5059265;28;1135;-37
2022/09/17 04:31:26;;;;;;;;;;;;;;;27.32;41.48;99643.63;5058709;28;1000;-37
2022/09/17 04:33:51;;;;;;;;;;;;;;;27.35;42.23;99647.78;5059296;28;1902;-34
2022/09/17 04:36:16;;;;;;;;;;;;;;;27.23;42.27;99648.44;5058922;28;902;-38
2022/09/17 04:38:42;;;;;;;;;;;;;;;27.15;42.47;99656.75;5059248;28;1159;-36
2022/09/17 04:41:07;;;;;;;;;;;;;;;27.43;40.98;99646.72;5059214;28;1179;-34
2022/09/17 04:43:32;;;;;;;;;;;;;;;27.12;42.54;99644.50;5058701;28;1100;-34
2022/09/17 04:45:58;;;;;;;;;;;;;;;26.99;43.57;99648.00;5059130;28;1139;-36
2022/09/17 04:48:23;;;;;;;;;;;;;;;26.95;44.59;99646.78;5041649;28;902;-32
2022/09/17 04:50:48;;;;;;;;;;;;;;;26.99;44.54;99631.81;5043248;28;1591;-35
2022/09/17 04:53:14;;;;;;;;;;;;;;;26.95;44.75;99630.59;5046393;28;1048;-34
2022/09/17 04:55:39;;;;;;;;;;;;;;;27.03;44.61;99629.56;5058718;28;1898;-37
2022/09/17 04:58:04;;;;;;;;;;;;;;;27.22;43.95;99621.63;5059022;28;1112;-37
2022/09/17 05:00:30;;;;;;;;;;;;;;;27.21;44.43;99617.28;5053363;28;1151;-35
2022/09/17 05:02:55;;;;;;;;;;;;;;;27.21;43.08;99609.19;5049781;28;1167;-33
2022/09/17 05:05:20;;;;;;;;;;;;;;;27.22;42.21;99603.59;5058642;28;1222;-37
2022/09/17 05:07:46;;;;;;;;;;;;;;;27.31;41.59;99595.25;5057622;28;1010;-37
2022/09/17 05:10:11;;;;;;;;;;;;;;;27.34;41.86;99597.53;5056866;28;1204;-34
2022/09/17 05:12:37;;;;;;;;;;;;;;;27.49;40.87;99589.97;5048220;28;923;-35
2022/09/17 05:15:02;;;;;;;;;;;;;;;27.43;42.60;99593.53;5056742;28;1935;-34
2022/09/17 05:17:27;;;;;;;;;;;;;;;27.41;41.37;99586.69;5058530;28;1143;-34
2022/09/17 05:19:53;;;;;;;;;;;;;;;27.50;41.28;99583.53;5058485;28;1201;-37
2022/09/17 05:22:18;;;;;;;;;;;;;;;27.40;41.76;99593.97;5058082;28;1127;-34
2022/09/17 05:24:44;;;;;;;;;;;;;;;27.47;42.03;99600.19;5047638;28;1000;-35
2022/09/17 05:27:09;;;;;;;;;;;;;;;27.37;39.34;99602.50;5056947;28;1049;-38
2022/09/17 05:29:35;;;;;;;;;;;;;;;27.43;39.50;99601.63;5053741;28;1202;-36
2022/09/17 05:32:00;;;;;;;;;;;;;;;27.48;38.88;99599.13;5049151;28;1196;-36
2022/09/17 05:34:26;;;;;;;;;;;;;;;27.53;40.04;99594.97;5057618;28;1910;-35
2022/09/17 05:36:51;;;;;;;;;;;;;;;27.60;40.18;99598.44;5057707;28;961;-35
2022/09/17 05:39:16;;;;;;;;;;;;;;;27.63;39.92;99598.84;5058003;28;1119;-38
2022/09/17 05:41:42;;;;;;;;;;;;;;;27.69;39.57;99594.50;5037967;28;1163;-38
2022/09/17 05:44:07;;;;;;;;;;;;;;;27.76;39.65;99599.84;5037725;28;1136;-35
2022/09/17 05:46:32;;;;;;;;;;;;;;;27.83;40.34;99594.41;5054228;28;1182;-37
2022/09/17 05:48:58;;;;;;;;;;;;;;;27.66;40.92;99589.47;5057453;28;889;-37
2022/09/17 05:51:23;;;;;;;;;;;;;;;27.67;40.33;99584.91;5057805;28;1214;-35
2022/09/17 05:53:48;;;;;;;;;;;;;;;27.76;40.04;99583.66;5057684;28;2304;-35
2022/09/17 05:56:14;;;;;;;;;;;;;;;27.76;39.79;99580.94;5053487;28;1283;-35
2022/09/17 05:58:39;;;;;;;;;;;;;;;27.85;39.72;99570.72;5050368;28;1230;-36
2022/09/17 06:01:04;;;;;;;;;;;;;;;27.72;40.59;99561.66;5055376;28;875;-39
2022/09/17 06:03:30;;;;;;;;;;;;;;;27.78;40.27;99573.47;5048386;28;1123;-37
2022/09/17 06:05:57;;;;;;;;;;;;;;;27.96;40.39;99593.53;5057475;28;1143;-37
2022/09/17 06:08:22;;;;;;;;;;;;;;;28.01;39.63;99585.59;5057767;28;1183;-38
2022/09/17 06:10:48;;;;;;;;;;;;;;;28.08;39.88;99588.25;5057184;28;1222;-36
2022/09/17 06:13:13;;;;;;;;;;;;;;;28.15;39.63;99589.03;5056466;28;1064;-37
2022/09/17 06:15:39;;;;;;;;;;;;;;;28.28;39.67;99590.81;5052488;28;1898;-38
2022/09/17 06:18:04;;;;;;;;;;;;;;;28.24;39.61;99595.03;5042029;28;1211;-38
2022/09/17 06:20:29;;;;;;;;;;;;;;;28.21;39.90;99590.88;5045297;28;1279;-36
2022/09/17 06:22:56;;;;;;;;;;;;;;;28.31;39.40;99587.66;5047517;28;1136;-38
2022/09/17 06:25:22;;;;;;;;;;;;;;;28.41;39.22;99581.00;5040896;28;1222;-37
2022/09/17 06:27:47;;;;;;;;;;;;;;;28.49;39.04;99583.41;5040349;28;1124;-36
2022/09/17 06:30:13;;;;;;;;;;;;;;;28.47;38.99;99575.53;5038900;28;1302;-39
2022/09/17 06:32:38;;;;;;;;;;;;;;;28.58;38.76;99573.13;5047747;28;1249;-38
2022/09/17 06:35:03;;;;;;;;;;;;;;;28.52;38.82;99579.44;5046289;28;1918;-38
2022/09/17 06:37:29;;;;;;;;;;;;;;;28.54;39.34;99580.03;5046825;28;1194;-38
2022/09/17 06:39:55;;;;;;;;;;;;;;;28.57;39.12;99574.19;5043567;28;1585;-37
2022/09/17 06:42:20;;;;;;;;;;;;;;;28.63;38.95;99573.28;5036784;28;1179;-35
2022/09/17 06:44:45;;;;;;;;;;;;;;;28.68;39.05;99580.75;5037572;28;1257;-38
2022/09/17 06:47:11;;;;;;;;;;;;;;;28.68;38.96;99586.16;5056329;28;1124;-38
2022/09/17 06:49:36;;;;;;;;;;;;;;;28.74;38.57;99579.88;5036501;28;1259;-38
2022/09/17 06:52:01;;;;;;;;;;;;;;;28.75;38.81;99572.56;5050272;28;1127;-37
2022/09/17 06:54:26;;;;;;;;;;;;;;;28.60;36.92;99577.28;5047174;28;1906;-38
2022/09/17 06:56:52;;;;;;;;;;;;;;;28.71;37.83;99567.59;5043956;28;1214;-37
2022/09/17 06:59:17;;;;;;;;;;;;;;;28.82;38.04;99567.94;5055064;28;1247;-39
2022/09/17 07:01:43;;;;;;;;;;;;;;;28.87;38.18;99565.38;5052042;28;1199;-37
2022/09/17 07:04:08;;;;;;;;;;;;;;;28.92;38.00;99564.69;5041685;28;1269;-38
2022/09/17 07:06:33;;;;;;;;;;;;;;;28.93;37.91;99572.59;5055469;28;1155;-36
2022/09/17 07:08:59;;;;;;;;;;;;;;;28.96;37.89;99569.44;5045715;28;1163;-38
2022/09/17 07:11:24;;;;;;;;;;;;;;;29.05;37.61;99571.88;5044525;28;1148;-36
2022/09/17 07:13:49;;;;;;;;;;;;;;;29.05;37.84;99566.47;5044309;28;1965;-38
2022/09/17 07:16:14;;;;;;;;;;;;;;;29.08;37.77;99569.56;5036326;28;1186;-36
2022/09/17 07:18:40;;;;;;;;;;;;;;;29.15;37.79;99574.06;5036313;28;1091;-35
2022/09/17 07:21:05;;;;;;;;;;;;;;;29.26;37.40;99572.50;5035856;28;1217;-39
2022/09/17 07:23:31;;;;;;;;;;;;;;;29.24;37.01;99575.44;5043198;28;1168;-36
2022/09/17 07:25:57;;;;;;;;;;;;;;;29.22;37.60;99585.66;5053224;28;1179;-36
2022/09/17 07:28:22;;;;;;;;;;;;;;;29.08;37.73;99580.38;5049391;28;1489;-38
2022/09/17 07:30:48;;;;;;;;;;;;;;;29.27;37.37;99584.97;5046797;28;1418;-38
2022/09/17 07:33:14;;;;;;;;;;;;;;;29.29;37.22;99581.00;5049857;28;973;-37
2022/09/17 07:35:40;;;;;;;;;;;;;;;29.26;37.49;99578.72;5041691;28;1952;-38
2022/09/17 07:38:05;;;;;;;;;;;;;;;29.33;37.26;99579.47;5056074;28;1084;-34
2022/09/17 07:40:30;;;;;;;;;;;;;;;29.38;37.30;99580.69;5052103;28;1214;-38
2022/09/17 07:42:57;;;;;;;;;;;;;;;29.31;37.34;99578.88;5036961;28;1215;-37
2022/09/17 07:45:22;;;;;;;;;;;;;;;29.46;37.29;99575.78;5051712;28;1120;-38
2022/09/17 07:47:48;;;;;;;;;;;;;;;29.50;36.99;99580.75;5055451;28;1120;-38
2022/09/17 07:50:13;;;;;;;;;;;;;;;29.52;37.13;99575.91;5054646;28;1202;-37
2022/09/17 07:52:44;;;;;;;;;;;;;;;29.61;36.63;99577.31;5038196;28;1513;-37
2022/09/17 07:55:09;;;;;;;;;;;;;;;29.48;37.23;99574.75;5054096;28;1957;-38
2022/09/17 07:57:34;;;;;;;;;;;;;;;29.55;37.16;99570.88;5041377;28;1021;-37
2022/09/17 07:59:59;;;;;;;;;;;;;;;29.77;36.48;99565.00;5054900;28;1242;-35
2022/09/17 08:02:25;;;;;;;;;;;;;;;30.30;35.21;99565.28;5049156;28;1164;-38
2022/09/17 08:04:50;;;;;;;;;;;;;;;29.81;36.40;99568.09;5043770;28;1028;-39
2022/09/17 08:07:16;;;;;;;;;;;;;;;29.78;36.23;99560.41;5050465;28;1103;-37
2022/09/17 08:09:41;;;;;;;;;;;;;;;29.76;36.42;99557.09;5059701;28;1171;-37
2022/09/17 08:12:07;;;;;;;;;;;;;;;29.91;36.10;99565.63;5057718;28;1373;-38
2022/09/17 08:14:32;;;;;;;;;;;;;;;29.89;36.30;99559.63;5059785;28;1956;-35
2022/09/17 08:16:57;;;;;;;;;;;;;;;29.93;36.10;99551.81;5051813;28;1271;-38
2022/09/17 08:19:23;;;;;;;;;;;;;;;29.99;35.87;99550.94;5051078;28;1018;-38
2022/09/17 08:21:48;;;;;;;;;;;;;;;29.96;36.02;99547.84;5057151;28;1351;-39
2022/09/17 08:24:13;;;;;;;;;;;;;;;29.97;36.04;99544.91;5048698;28;1005;-38
2022/09/17 08:26:40;;;;;;;;;;;;;;;30.06;36.11;99529.13;5049468;28;1274;-38
2022/09/17 08:29:06;;;;;;;;;;;;;;;30.09;35.99;99522.41;5043236;28;1191;-37
2022/09/17 08:31:32;;;;;;;;;;;;;;;30.27;35.74;99527.78;5047894;28;1317;-38
2022/09/17 08:33:58;;;;;;;;;;;;;;;30.31;35.55;99525.41;5052811;28;1906;-38
2022/09/17 08:36:25;;;;;;;;;;;;;;;30.32;35.74;99524.34;5044145;28;1235;-38
2022/09/17 08:38:53;;;;;;;;;;;;;;;30.42;35.50;99519.16;5045085;28;1238;-38
2022/09/17 08:41:20;;;;;;;;;;;;;;;30.79;34.92;99519.97;5047919;28;1211;-38
2022/09/17 08:43:48;;;;;;;;;;;;;;;30.61;35.24;99515.50;5047020;28;1224;-38
2022/09/17 08:46:13;;;;;;;;;;;;;;;30.59;35.44;99518.47;5049026;28;1222;-38
2022/09/17 08:48:44;;;;;;;;;;;;;;;30.98;34.72;99504.38;5046441;28;1274;-37
2022/09/17 08:51:22;;;;;;;;;;;;;;;30.61;35.24;99488.38;5047897;28;1286;-38
2022/09/17 08:53:52;;;;;;;;;;;;;;;30.52;35.67;99487.91;5046423;28;1969;-38
2022/09/17 08:56:17;;;;;;;;;;;;;;;30.49;35.53;99491.91;5046693;28;1187;-39
2022/09/17 08:58:43;;;;;;;;;;;;;;;30.61;35.50;99483.78;5054887;28;1298;-38
2022/09/17 09:01:11;;;;;;;;;;;;;;;30.49;35.46;99486.50;5058476;28;1278;-39
2022/09/17 09:03:55;;;;;;;;;;;;;;;30.52;35.46;99477.03;5047494;28;1084;-38
2022/09/17 09:06:22;;;;;;;;;;;;;;;30.49;35.73;99480.22;5044258;28;1116;-38
2022/09/17 09:08:55;;;;;;;;;;;;;;;30.50;35.64;99474.56;5057367;28;1223;-37
2022/09/17 09:11:22;;;;;;;;;;;;;;;30.58;35.36;99469.84;5057418;28;1171;-37
2022/09/17 09:13:52;;;;;;;;;;;;;;;30.58;35.35;99469.84;5056945;28;1981;-39
2022/09/17 09:16:18;;;;;;;;;;;;;;;30.67;35.04;99466.53;5054321;28;1155;-39
2022/09/17 09:18:43;;;;;;;;;;;;;;;30.70;35.28;99465.22;5046635;28;1148;-37
2022/09/17 09:21:11;;;;;;;;;;;;;;;30.74;35.39;99462.84;5058097;28;1139;-39
2022/09/17 09:23:37;;;;;;;;;;;;;;;30.89;35.33;99456.94;5058321;28;1139;-37
2022/09/17 09:26:10;;;;;;;;;;;;;;;31.06;35.02;99453.47;5057840;28;941;-39
2022/09/17 09:28:41;;;;;;;;;;;;;;;31.03;34.82;99452.09;5056898;28;1420;-38
2022/09/17 09:31:10;;;;;;;;;;;;;;;31.08;35.11;99454.06;5056706;28;1128;-39
2022/09/17 09:33:36;;;;;;;;;;;;;;;31.07;34.47;99449.69;5058028;28;1123;-38
2022/09/17 09:36:01;;;;;;;;;;;;;;;30.94;35.31;99456.22;5056858;28;1973;-35
2022/09/17 09:38:31;;;;;;;;;;;;;;;31.01;34.90;99451.50;5053858;28;1206;-38
2022/09/17 09:40:59;;;;;;;;;;;;;;;30.91;35.19;99465.69;5048884;28;1120;-36
2022/09/17 09:43:27;;;;;;;;;;;;;;;30.95;35.55;99453.25;5052779;28;1125;-38
2022/09/17 09:45:53;;;;;;;;;;;;;;;30.97;35.28;99437.56;5057681;28;1143;-39
2022/09/17 09:48:21;;;;;;;;;;;;;;;31.03;34.62;99430.34;5057441;28;1001;-36
2022/09/17 09:50:49;;;;;;;;;;;;;;;31.09;34.91;99437.53;5057472;28;881;-36
2022/09/17 09:53:14;;;;;;;;;;;;;;;30.88;34.24;99439.03;5057268;28;1139;-34
2022/09/17 09:55:57;;;;;;;;;;;;;;;29.42;34.77;99436.44;5057563;28;1969;-33
2022/09/17 09:58:26;;;;;;;;;;;;;;;28.24;35.11;99439.00;5057573;28;1147;-35
2022/09/17 10:00:51;;;;;;;;;;;;;;;27.57;37.81;99450.31;5056902;28;1175;-35
2022/09/17 10:03:19;;;;;;;;;;;;;;;26.89;39.84;99443.34;5048558;28;1048;-36
2022/09/17 10:05:58;;;;;;;;;;;;;;;26.55;40.53;99434.53;5043990;28;1140;-32
2022/09/17 10:08:23;;;;;;;;;;;;;;;26.56;40.54;99424.59;5056583;28;1195;-35
2022/09/17 10:10:59;;;;;;;;;;;;;;;26.49;40.67;99425.41;5057168;28;1186;-34
2022/09/17 10:13:25;;;;;;;;;;;;;;;26.29;41.08;99420.88;5054746;28;1219;-35
2022/09/17 10:15:50;;;;;;;;;;;;;;;26.09;41.28;99417.38;5057254;28;1955;-32
2022/09/17 10:18:16;;;;;;;;;;;;;;;25.99;41.39;99413.22;5056280;28;1182;-30
2022/09/17 10:20:55;;;;;;;;;;;;;;;26.03;41.00;99405.56;5057021;28;1155;-36
2022/09/17 10:23:20;;;;;;;;;;;;;;;25.80;41.72;99404.13;5057320;28;1159;-31
2022/09/17 10:25:46;;;;;;;;;;;;;;;25.80;41.96;99404.13;5052089;28;1230;-32
2022/09/17 10:28:31;;;;;;;;;;;;;;;25.57;42.35;99397.25;5057181;28;1104;-36
2022/09/17 10:30:58;;;;;;;;;;;;;;;25.89;44.77;99393.97;5033711;28;1288;-34
2022/09/17 10:33:30;;;;;;;;;;;;;;;27.36;39.91;99396.44;5056427;28;1178;-36
2022/09/17 10:36:00;;;;;;;;;;;;;;;26.36;40.04;99390.44;5056417;28;1902;-32
2022/09/17 10:38:33;;;;;;;;;;;;;;;25.72;42.06;99388.16;5046642;28;890;-34
2022/09/17 10:41:12;;;;;;;;;;;;;;;25.47;42.56;99368.03;5038349;28;1171;-32
2022/09/17 10:43:37;;;;;;;;;;;;;;;25.33;42.81;99352.88;5055880;28;1104;-33
2022/09/17 10:46:02;;;;;;;;;;;;;;;25.19;43.36;99358.25;5056549;28;1487;-37
2022/09/17 10:48:31;;;;;;;;;;;;;;;25.05;43.58;99370.84;5042271;28;1135;-32
2022/09/17 10:50:57;;;;;;;;;;;;;;;25.64;44.16;99359.59;5056533;28;949;-33
2022/09/17 10:53:23;;;;;;;;;;;;;;;26.64;41.83;99365.84;5056285;28;1211;-35
2022/09/17 10:55:57;;;;;;;;;;;;;;;25.84;41.73;99366.84;5055540;28;1898;-32
2022/09/17 10:58:22;;;;;;;;;;;;;;;25.28;43.19;99372.34;5056417;28;1163;-35
2022/09/17 11:00:52;;;;;;;;;;;;;;;25.09;43.45;99376.66;5056219;28;1111;-35
2022/09/17 11:03:22;;;;;;;;;;;;;;;24.99;43.60;99377.03;5055258;28;958;-35
2022/09/17 11:05:58;;;;;;;;;;;;;;;24.91;44.09;99376.19;5055442;28;1152;-33
2022/09/17 11:08:33;;;;;;;;;;;;;;;24.73;46.73;99367.78;5054727;28;1405;-33
2022/09/17 11:11:06;;;;;;;;;;;;;;;26.14;42.77;99371.78;5040758;28;1311;-31
2022/09/17 11:13:35;;;;;;;;;;;;;;;25.87;41.74;99374.50;5045874;28;1281;-32
2022/09/17 11:16:13;;;;;;;;;;;;;;;25.28;43.33;99380.41;5056122;28;1909;-33
2022/09/17 11:18:39;;;;;;;;;;;;;;;24.95;43.81;99376.59;5056278;28;1088;-35
2022/09/17 11:21:23;;;;;;;;;;;;;;;24.74;44.55;99367.59;5054598;28;1508;-35
2022/09/17 11:24:00;;;;;;;;;;;;;;;24.64;45.07;99353.72;5048814;28;993;-36
2022/09/17 11:26:28;;;;;;;;;;;;;;;24.55;46.93;99348.50;5056082;28;1104;-35
2022/09/17 11:29:03;;;;;;;;;;;;;;;25.60;44.57;99345.66;5055045;28;1128;-31
2022/09/17 11:31:46;;;;;;;;;;;;;;;25.49;43.08;99320.16;5060060;28;1116;-34
2022/09/17 11:34:24;;;;;;;;;;;;;;;24.89;42.90;99327.09;5058735;28;1961;-37
2022/09/17 11:37:04;;;;;;;;;;;;;;;24.60;43.99;99333.63;5051240;28;1052;-33
2022/09/17 11:39:35;;;;;;;;;;;;;;;24.31;44.55;99331.00;5043991;28;1295;-32
2022/09/17 11:42:01;;;;;;;;;;;;;;;24.38;45.11;99331.03;5059970;28;1384;-35
2022/09/17 11:44:47;;;;;;;;;;;;;;;24.36;45.22;99325.88;5046081;28;1239;-32
2022/09/17 11:47:13;;;;;;;;;;;;;;;24.20;45.77;99319.81;5053470;28;1212;-37
2022/09/17 11:49:41;;;;;;;;;;;;;;;25.00;46.17;99317.66;5046161;28;1493;-35
2022/09/17 11:52:27;;;;;;;;;;;;;;;25.40;43.57;99310.66;5043372;28;1365;-34
2022/09/17 11:54:57;;;;;;;;;;;;;;;24.65;43.32;99305.13;5040796;28;1893;-34
2022/09/17 11:57:24;;;;;;;;;;;;;;;24.25;44.96;99310.31;5047523;28;1509;-34
2022/09/17 11:59:52;;;;;;;;;;;;;;;24.06;45.42;99301.91;5044556;28;1231;-35
2022/09/17 12:02:36;;;;;;;;;;;;;;;24.14;45.40;99303.63;5047213;28;1096;-34
2022/09/17 12:05:02;;;;;;;;;;;;;;;24.03;45.91;99289.72;5038981;28;1336;-34
2022/09/17 12:07:27;;;;;;;;;;;;;;;23.96;46.24;99286.13;5045542;28;1235;-33
2022/09/17 12:09:53;;;;;;;;;;;;;;;24.51;47.41;99284.56;5039332;28;1282;-35
2022/09/17 12:12:22;;;;;;;;;;;;;;;25.83;45.40;99277.09;5043532;28;1227;-35
2022/09/17 12:14:53;;;;;;;;;;;;;;;24.64;44.27;99276.56;5047503;28;1902;-32
2022/09/17 12:17:22;;;;;;;;;;;;;;;24.06;44.25;99278.56;5043321;28;1072;-31
2022/09/17 12:19:58;;;;;;;;;;;;;;;23.81;45.89;99270.97;5023943;28;1351;-32
2022/09/17 12:22:27;;;;;;;;;;;;;;;23.75;48.96;99279.00;5045055;28;1238;-30
2022/09/17 12:24:53;;;;;;;;;;;;;;;25.01;45.52;99276.25;5043329;28;1141;-32
2022/09/17 12:27:27;;;;;;;;;;;;;;;24.67;45.69;99269.97;5046367;28;1218;-35
2022/09/17 12:30:07;;;;;;;;;;;;;;;24.23;46.32;99262.13;5044208;28;1263;-32
2022/09/17 12:32:51;;;;;;;;;;;;;;;24.05;46.23;99243.84;5037765;28;1239;-35
2022/09/17 12:35:19;;;;;;;;;;;;;;;23.76;47.02;99248.41;5046662;28;1965;-33
2022/09/17 12:37:48;;;;;;;;;;;;;;;23.83;50.24;99246.63;5047345;28;1316;-34
2022/09/17 12:40:28;;;;;;;;;;;;;;;25.14;45.82;99239.66;5048323;28;1220;-36
2022/09/17 12:43:06;;;;;;;;;;;;;;;24.89;44.29;99227.56;5045719;28;1183;-36
2022/09/17 12:45:37;;;;;;;;;;;;;;;24.18;44.40;99222.44;5046525;28;1203;-31
2022/09/17 12:48:13;;;;;;;;;;;;;;;24.09;47.48;99224.44;5043998;28;1255;-31
2022/09/17 12:50:58;;;;;;;;;;;;;;;25.30;45.01;99217.72;5040416;28;1200;-35
2022/09/17 12:53:24;;;;;;;;;;;;;;;24.63;45.66;99220.28;5048480;28;1253;-36
2022/09/17 12:56:07;;;;;;;;;;;;;;;24.26;46.06;99215.22;5046633;28;1901;-31
2022/09/17 12:58:58;;;;;;;;;;;;;;;23.91;46.43;99216.06;5053591;28;1073;-32
2022/09/17 13:01:50;;;;;;;;;;;;;;;24.35;48.16;99230.16;5028076;28;1395;-32